createdAt,value
2023-04-10T00:00:00.567Z,9.40
2023-04-10T00:01:02.329Z,9.17
2023-04-10T00:02:04.174Z,9.17
2023-04-10T00:03:06.903Z,9.23
2023-04-10T00:04:09.718Z,8.50
2023-04-10T00:05:11.819Z,9.23
2023-04-10T00:06:13.700Z,9.53
2023-04-10T00:07:15.755Z,9.80
2023-04-10T00:08:17.551Z,9.60
2023-04-10T00:09:19.347Z,9.53
2023-04-10T00:10:21.426Z,8.90
2023-04-10T00:11:23.173Z,9.70
2023-04-10T00:12:25.290Z,9.37
2023-04-10T00:13:27.153Z,9.67
2023-04-10T00:14:28.963Z,10.03
2023-04-10T00:15:30.809Z,9.23
2023-04-10T00:16:32.648Z,9.90
2023-04-10T00:17:34.421Z,10.03
2023-04-10T00:18:36.145Z,8.37
2023-04-10T00:19:38.147Z,8.63
2023-04-10T00:20:39.872Z,9.13
2023-04-10T00:21:41.614Z,9.17
2023-04-10T00:22:43.405Z,9.47
2023-04-10T00:23:45.412Z,9.33
2023-04-10T00:24:47.104Z,8.93
2023-04-10T00:25:49.176Z,9.53
2023-04-10T00:26:50.949Z,9.40
2023-04-10T00:27:54.363Z,8.60
2023-04-10T00:28:56.146Z,8.73
2023-04-10T00:29:57.877Z,9.07
2023-04-10T00:30:59.545Z,9.33
2023-04-10T00:32:01.315Z,8.53
2023-04-10T00:33:03.191Z,8.60
2023-04-10T00:34:05.084Z,8.40
2023-04-10T00:35:08.471Z,8.43
2023-04-10T00:36:10.308Z,8.73
2023-04-10T00:37:12.089Z,9.27
2023-04-10T00:38:13.858Z,9.90
2023-04-10T00:39:15.937Z,8.73
2023-04-10T00:40:17.638Z,9.23
2023-04-10T00:41:19.452Z,8.63
2023-04-10T00:42:21.134Z,9.30
2023-04-10T00:43:22.846Z,8.80
2023-04-10T00:44:24.546Z,8.43
2023-04-10T00:45:26.616Z,9.57
2023-04-10T00:46:29.098Z,9.20
2023-04-10T00:47:31.581Z,9.13
2023-04-10T00:48:34.472Z,8.73
2023-04-10T00:49:36.408Z,8.47
2023-04-10T00:50:38.286Z,9.10
2023-04-10T00:51:40.221Z,8.17
2023-04-10T00:52:41.960Z,8.73
2023-04-10T00:53:43.774Z,8.23
2023-04-10T00:54:45.761Z,9.10
2023-04-10T00:55:48.179Z,8.63
2023-04-10T00:56:50.878Z,8.23
2023-04-10T00:57:54.218Z,9.07
2023-04-10T00:58:55.981Z,7.67
2023-04-10T00:59:58.247Z,8.50
2023-04-10T01:01:00.062Z,8.30
2023-04-10T01:02:02.943Z,8.13
2023-04-10T01:03:05.041Z,7.77
2023-04-10T01:04:08.270Z,8.20
2023-04-10T01:05:12.387Z,8.33
2023-04-10T01:06:49.018Z,9.20
2023-04-10T01:08:17.697Z,8.53
2023-04-10T01:09:44.339Z,7.77
2023-04-10T01:10:57.655Z,7.83
2023-04-10T01:12:12.815Z,8.67
2023-04-10T01:13:31.691Z,8.43
2023-04-10T01:15:02.235Z,8.43
2023-04-10T01:16:41.871Z,7.90
2023-04-10T01:18:04.250Z,8.83
2023-04-10T01:19:34.431Z,8.77
2023-04-10T01:20:39.633Z,7.60
2023-04-10T01:21:42.325Z,8.37
2023-04-10T01:23:04.687Z,7.90
2023-04-10T01:24:21.862Z,8.83
2023-04-10T01:25:23.571Z,8.67
2023-04-10T01:27:03.320Z,8.07
2023-04-10T01:28:11.195Z,8.20
2023-04-10T01:29:19.618Z,7.80
2023-04-10T01:30:23.177Z,8.07
2023-04-10T01:31:39.156Z,7.83
2023-04-10T01:32:41.749Z,8.60
2023-04-10T01:33:54.419Z,8.57
2023-04-10T01:34:58.727Z,8.27
2023-04-10T01:36:05.136Z,8.30
2023-04-10T01:37:16.101Z,8.87
2023-04-10T01:38:20.714Z,8.77
2023-04-10T01:39:23.725Z,8.27
2023-04-10T01:40:27.219Z,8.13
2023-04-10T01:41:30.410Z,8.10
2023-04-10T01:42:35.030Z,8.83
2023-04-10T01:43:39.205Z,8.27
2023-04-10T01:44:47.332Z,8.60
2023-04-10T01:45:52.079Z,7.70
2023-04-10T01:46:56.223Z,8.23
2023-04-10T01:47:58.348Z,7.97
2023-04-10T01:49:02.159Z,8.47
2023-04-10T01:50:04.687Z,8.10
2023-04-10T01:51:07.775Z,8.33
2023-04-10T01:52:11.120Z,8.10
2023-04-10T01:53:13.731Z,8.57
2023-04-10T01:54:18.219Z,7.63
2023-04-10T01:55:21.632Z,8.20
2023-04-10T01:56:23.355Z,7.80
2023-04-10T01:57:25.642Z,8.30
2023-04-10T01:58:27.651Z,8.10
2023-04-10T01:59:30.076Z,8.27
2023-04-10T02:00:39.266Z,8.23
2023-04-10T02:01:41.077Z,8.30
2023-04-10T02:02:44.208Z,7.60
2023-04-10T02:03:46.281Z,8.67
2023-04-10T02:04:51.802Z,9.17
2023-04-10T02:06:15.775Z,8.47
2023-04-10T02:07:28.694Z,8.47
2023-04-10T02:09:13.421Z,8.43
2023-04-10T02:10:37.574Z,8.17
2023-04-10T02:11:49.233Z,8.07
2023-04-10T02:12:55.613Z,7.80
2023-04-10T02:14:02.162Z,9.00
2023-04-10T02:15:06.518Z,8.37
2023-04-10T02:16:09.574Z,7.67
2023-04-10T02:17:16.100Z,8.10
2023-04-10T02:18:19.997Z,8.00
2023-04-10T02:19:23.716Z,8.27
2023-04-10T02:20:26.649Z,8.10
2023-04-10T02:21:29.065Z,8.50
2023-04-10T02:22:31.092Z,8.47
2023-04-10T02:23:32.927Z,8.40
2023-04-10T02:24:35.658Z,8.27
2023-04-10T02:25:38.889Z,9.03
2023-04-10T02:26:47.298Z,8.10
2023-04-10T02:27:49.041Z,8.63
2023-04-10T02:28:50.758Z,8.60
2023-04-10T02:29:52.562Z,8.70
2023-04-10T02:30:54.252Z,8.77
2023-04-10T02:31:56.281Z,8.67
2023-04-10T02:32:58.063Z,8.77
2023-04-10T02:33:59.781Z,8.83
2023-04-10T02:35:04.535Z,8.73
2023-04-10T02:36:06.839Z,8.07
2023-04-10T02:37:08.628Z,8.80
2023-04-10T02:38:10.477Z,9.27
2023-04-10T02:39:12.310Z,9.00
2023-04-10T02:40:14.070Z,9.63
2023-04-10T02:41:15.765Z,8.50
2023-04-10T02:42:17.539Z,9.20
2023-04-10T02:43:19.319Z,9.20
2023-04-10T02:44:21.458Z,9.03
2023-04-10T02:45:23.233Z,8.53
2023-04-10T02:46:25.277Z,9.30
2023-04-10T02:47:27.074Z,8.40
2023-04-10T02:48:28.874Z,9.93
2023-04-10T02:49:30.690Z,8.70
2023-04-10T02:50:32.718Z,9.10
2023-04-10T02:51:37.407Z,9.10
2023-04-10T02:52:39.237Z,8.93
2023-04-10T02:53:41.013Z,9.17
2023-04-10T02:54:42.762Z,8.83
2023-04-10T02:55:44.481Z,9.50
2023-04-10T02:56:46.280Z,9.20
2023-04-10T02:57:48.300Z,8.70
2023-04-10T02:58:50.169Z,8.20
2023-04-10T02:59:52.112Z,8.50
2023-04-10T03:00:53.939Z,8.30
2023-04-10T03:01:55.918Z,9.07
2023-04-10T03:02:58.072Z,7.73
2023-04-10T03:04:00.246Z,9.07
2023-04-10T03:05:02.617Z,8.87
2023-04-10T03:06:06.237Z,8.60
2023-04-10T03:07:09.855Z,8.70
2023-04-10T03:08:11.508Z,9.00
2023-04-10T03:09:13.310Z,9.27
2023-04-10T03:10:15.257Z,9.17
2023-04-10T03:11:17.063Z,9.20
2023-04-10T03:12:18.824Z,8.80
2023-04-10T03:13:20.548Z,8.87
2023-04-10T03:14:22.285Z,8.20
2023-04-10T03:15:24.000Z,9.07
2023-04-10T03:16:26.005Z,8.77
2023-04-10T03:17:27.831Z,8.60
2023-04-10T03:18:29.921Z,8.27
2023-04-10T03:19:31.754Z,8.80
2023-04-10T03:20:33.782Z,8.77
2023-04-10T03:21:35.516Z,7.80
2023-04-10T03:22:37.295Z,8.10
2023-04-10T03:23:38.969Z,8.27
2023-04-10T03:24:41.114Z,7.90
2023-04-10T03:25:43.442Z,8.40
2023-04-10T03:26:45.588Z,8.53
2023-04-10T03:27:47.652Z,8.33
2023-04-10T03:28:49.611Z,8.07
2023-04-10T03:29:51.313Z,8.50
2023-04-10T03:30:53.093Z,8.60
2023-04-10T03:31:54.929Z,8.70
2023-04-10T03:32:56.805Z,8.80
2023-04-10T03:33:58.744Z,8.10
2023-04-10T03:35:00.676Z,8.83
2023-04-10T03:36:02.517Z,7.77
2023-04-10T03:37:04.324Z,9.17
2023-04-10T03:38:06.085Z,8.20
2023-04-10T03:39:07.850Z,8.33
2023-04-10T03:40:11.154Z,8.70
2023-04-10T03:41:12.836Z,8.33
2023-04-10T03:42:14.602Z,7.50
2023-04-10T03:43:16.359Z,8.40
2023-04-10T03:44:18.743Z,7.93
2023-04-10T03:45:20.914Z,7.87
2023-04-10T03:46:22.889Z,7.80
2023-04-10T03:47:24.807Z,8.07
2023-04-10T03:48:28.289Z,7.83
2023-04-10T03:49:30.183Z,8.23
2023-04-10T03:50:32.090Z,7.70
2023-04-10T03:51:33.835Z,8.40
2023-04-10T03:52:35.565Z,7.40
2023-04-10T03:53:37.505Z,7.80
2023-04-10T03:54:39.208Z,7.53
2023-04-10T03:55:41.226Z,7.83
2023-04-10T03:56:42.925Z,8.00
2023-04-10T03:57:46.238Z,7.93
2023-04-10T03:58:47.993Z,7.80
2023-04-10T03:59:49.918Z,7.33
2023-04-10T04:00:51.717Z,7.40
2023-04-10T04:01:53.563Z,7.77
2023-04-10T04:02:55.709Z,6.83
2023-04-10T04:03:58.025Z,7.60
2023-04-10T04:05:00.494Z,7.80
2023-04-10T04:06:02.305Z,7.83
2023-04-10T04:07:04.063Z,8.07
2023-04-10T04:08:06.862Z,8.17
2023-04-10T04:09:08.592Z,8.47
2023-04-10T04:10:10.520Z,7.77
2023-04-10T04:11:12.352Z,7.77
2023-04-10T04:12:14.140Z,7.93
2023-04-10T04:13:15.896Z,8.10
2023-04-10T04:14:17.638Z,8.03
2023-04-10T04:15:20.272Z,7.77
2023-04-10T04:16:22.037Z,7.90
2023-04-10T04:17:23.855Z,8.07
2023-04-10T04:18:25.547Z,7.30
2023-04-10T04:19:27.233Z,7.20
2023-04-10T04:20:29.061Z,7.47
2023-04-10T04:21:31.793Z,8.27
2023-04-10T04:22:33.542Z,8.57
2023-04-10T04:23:35.440Z,8.03
2023-04-10T04:24:37.332Z,8.10
2023-04-10T04:25:39.118Z,7.80
2023-04-10T04:26:41.094Z,7.87
2023-04-10T04:27:42.835Z,8.60
2023-04-10T04:28:44.549Z,8.50
2023-04-10T04:29:46.615Z,8.57
2023-04-10T04:30:48.319Z,8.50
2023-04-10T04:31:51.310Z,8.40
2023-04-10T04:32:53.128Z,8.77
2023-04-10T04:33:55.026Z,7.90
2023-04-10T04:34:56.824Z,8.27
2023-04-10T04:35:58.594Z,8.20
2023-04-10T04:37:01.241Z,8.50
2023-04-10T04:38:02.973Z,7.83
2023-04-10T04:39:04.859Z,8.03
2023-04-10T04:40:07.144Z,8.03
2023-04-10T04:41:08.853Z,8.47
2023-04-10T04:42:10.628Z,8.10
2023-04-10T04:43:12.370Z,7.63
2023-04-10T04:44:14.109Z,7.27
2023-04-10T04:45:15.871Z,7.97
2023-04-10T04:46:17.568Z,8.03
2023-04-10T04:47:19.428Z,7.50
2023-04-10T04:48:21.248Z,8.27
2023-04-10T04:49:23.006Z,7.90
2023-04-10T04:50:24.768Z,7.70
2023-04-10T04:51:27.114Z,7.77
2023-04-10T04:52:29.456Z,7.70
2023-04-10T04:53:31.153Z,8.40
2023-04-10T04:54:32.846Z,7.47
2023-04-10T04:55:34.745Z,7.50
2023-04-10T04:56:36.609Z,8.57
2023-04-10T04:57:38.329Z,8.70
2023-04-10T04:58:40.140Z,7.97
2023-04-10T04:59:41.845Z,8.33
2023-04-10T05:00:43.634Z,8.23
2023-04-10T05:01:45.780Z,8.10
2023-04-10T05:02:47.674Z,7.97
2023-04-10T05:03:49.564Z,7.77
2023-04-10T05:04:51.436Z,7.87
2023-04-10T05:05:53.136Z,8.57
2023-04-10T05:06:54.835Z,8.53
2023-04-10T05:07:56.546Z,8.53
2023-04-10T05:08:58.243Z,8.63
2023-04-10T05:10:00.041Z,9.07
2023-04-10T05:11:01.949Z,9.40
2023-04-10T05:12:03.910Z,8.93
2023-04-10T05:13:05.954Z,9.00
2023-04-10T05:14:07.751Z,9.90
2023-04-10T05:15:09.931Z,11.77
2023-04-10T05:16:11.762Z,12.00
2023-04-10T05:17:15.121Z,10.37
2023-04-10T05:18:19.808Z,11.20
2023-04-10T05:19:21.666Z,11.40
2023-04-10T05:20:23.506Z,10.43
2023-04-10T05:21:25.837Z,10.73
2023-04-10T05:22:28.754Z,11.03
2023-04-10T05:23:30.434Z,10.07
2023-04-10T05:24:32.133Z,10.83
2023-04-10T05:25:33.843Z,10.47
2023-04-10T05:26:35.630Z,11.37
2023-04-10T05:27:37.426Z,9.87
2023-04-10T05:28:39.168Z,11.47
2023-04-10T05:29:40.978Z,11.07
2023-04-10T05:30:42.719Z,11.03
2023-04-10T05:31:44.552Z,10.87
2023-04-10T05:32:46.403Z,10.13
2023-04-10T05:33:48.162Z,10.00
2023-04-10T05:34:49.867Z,9.83
2023-04-10T05:35:53.343Z,10.57
2023-04-10T05:36:58.333Z,10.17
2023-04-10T05:38:00.943Z,9.63
2023-04-10T05:39:02.689Z,10.13
2023-04-10T05:40:05.119Z,9.90
2023-04-10T05:41:06.942Z,10.33
2023-04-10T05:42:08.701Z,10.17
2023-04-10T05:43:10.675Z,10.97
2023-04-10T05:44:12.386Z,10.40
2023-04-10T05:45:15.114Z,10.10
2023-04-10T05:46:18.141Z,9.77
2023-04-10T05:47:19.930Z,9.30
2023-04-10T05:48:22.085Z,10.10
2023-04-10T05:49:23.790Z,9.80
2023-04-10T05:50:25.475Z,9.83
2023-04-10T05:51:27.175Z,9.70
2023-04-10T05:52:28.866Z,9.67
2023-04-10T05:53:31.791Z,9.50
2023-04-10T05:54:33.545Z,9.63
2023-04-10T05:55:35.331Z,9.63
2023-04-10T05:56:37.031Z,9.93
2023-04-10T05:57:39.916Z,10.53
2023-04-10T05:58:41.703Z,10.77
2023-04-10T05:59:43.496Z,10.13
2023-04-10T06:00:45.381Z,10.57
2023-04-10T06:01:47.584Z,10.20
2023-04-10T06:02:49.565Z,9.97
2023-04-10T06:03:51.619Z,9.93
2023-04-10T06:04:53.598Z,9.80
2023-04-10T06:05:55.692Z,10.10
2023-04-10T06:06:58.430Z,9.97
2023-04-10T06:08:00.566Z,9.53
2023-04-10T06:09:02.276Z,10.10
2023-04-10T06:10:04.399Z,9.20
2023-04-10T06:11:06.401Z,9.50
2023-04-10T06:12:08.094Z,9.77
2023-04-10T06:13:11.230Z,9.73
2023-04-10T06:14:13.160Z,9.43
2023-04-10T06:15:14.972Z,9.73
2023-04-10T06:16:17.096Z,9.77
2023-04-10T06:17:21.211Z,10.07
2023-04-10T06:18:23.040Z,9.43
2023-04-10T06:19:24.807Z,8.83
2023-04-10T06:20:26.509Z,9.33
2023-04-10T06:21:28.556Z,9.13
2023-04-10T06:22:31.115Z,10.10
2023-04-10T06:23:32.918Z,9.20
2023-04-10T06:24:34.933Z,10.20
2023-04-10T06:25:37.305Z,9.77
2023-04-10T06:26:39.134Z,10.70
2023-04-10T06:27:41.176Z,11.47
2023-04-10T06:28:43.159Z,10.40
2023-04-10T06:29:44.991Z,11.43
2023-04-10T06:30:46.692Z,10.50
2023-04-10T06:31:49.760Z,11.07
2023-04-10T06:32:51.754Z,10.87
2023-04-10T06:33:53.686Z,10.27
2023-04-10T06:34:55.966Z,10.27
2023-04-10T06:35:58.731Z,11.87
2023-04-10T06:37:00.544Z,10.33
2023-04-10T06:38:02.273Z,11.03
2023-04-10T06:39:04.170Z,11.10
2023-04-10T06:40:11.363Z,10.73
2023-04-10T06:41:13.130Z,10.63
2023-04-10T06:42:14.907Z,11.57
2023-04-10T06:43:16.691Z,11.10
2023-04-10T06:44:18.461Z,10.60
2023-04-10T06:45:20.980Z,10.77
2023-04-10T06:46:22.799Z,10.80
2023-04-10T06:47:24.894Z,11.00
2023-04-10T06:48:26.756Z,10.23
2023-04-10T06:49:28.558Z,10.40
2023-04-10T06:50:31.656Z,9.67
2023-04-10T06:51:34.980Z,10.50
2023-04-10T06:52:36.678Z,10.20
2023-04-10T06:53:38.533Z,9.97
2023-04-10T06:54:40.721Z,10.30
2023-04-10T06:55:42.486Z,10.73
2023-04-10T06:56:44.396Z,10.27
2023-04-10T06:57:46.284Z,10.77
2023-04-10T06:58:47.994Z,9.57
2023-04-10T06:59:49.719Z,9.83
2023-04-10T07:00:51.572Z,10.50
2023-04-10T07:01:53.373Z,10.87
2023-04-10T07:02:55.289Z,10.77
2023-04-10T07:03:57.109Z,10.80
2023-04-10T07:04:58.956Z,10.57
2023-04-10T07:06:03.069Z,10.70
2023-04-10T07:07:09.634Z,10.27
2023-04-10T07:08:11.495Z,10.80
2023-04-10T07:09:13.807Z,9.97
2023-04-10T07:10:15.686Z,10.50
2023-04-10T07:11:17.423Z,9.73
2023-04-10T07:12:19.110Z,9.83
2023-04-10T07:13:20.902Z,10.50
2023-04-10T07:14:22.637Z,9.70
2023-04-10T07:15:24.602Z,10.47
2023-04-10T07:16:26.474Z,10.40
2023-04-10T07:17:28.331Z,9.77
2023-04-10T07:18:30.446Z,8.70
2023-04-10T07:19:32.218Z,9.27
2023-04-10T07:20:34.019Z,9.23
2023-04-10T07:21:36.112Z,9.57
2023-04-10T07:22:37.799Z,9.73
2023-04-10T07:23:39.666Z,9.03
2023-04-10T07:24:41.674Z,8.90
2023-04-10T07:25:43.542Z,9.00
2023-04-10T07:26:45.774Z,9.37
2023-04-10T07:27:47.607Z,9.57
2023-04-10T07:28:49.431Z,8.80
2023-04-10T07:29:54.692Z,8.50
2023-04-10T07:30:56.481Z,9.30
2023-04-10T07:31:58.293Z,9.10
2023-04-10T07:33:00.584Z,9.03
2023-04-10T07:34:03.323Z,9.00
2023-04-10T07:35:06.174Z,7.87
2023-04-10T07:36:08.410Z,7.97
2023-04-10T07:37:10.427Z,7.00
2023-04-10T07:38:13.272Z,7.40
2023-04-10T07:39:15.290Z,6.23
2023-04-10T07:40:17.138Z,7.83
2023-04-10T07:41:18.831Z,7.60
2023-04-10T07:42:20.594Z,6.47
2023-04-10T07:43:22.297Z,6.03
2023-04-10T07:44:26.113Z,6.00
2023-04-10T07:45:28.543Z,6.13
2023-04-10T07:46:30.422Z,5.93
2023-04-10T07:47:32.237Z,5.97
2023-04-10T07:48:34.049Z,5.87
2023-04-10T07:49:36.018Z,6.67
2023-04-10T07:50:37.698Z,6.17
2023-04-10T07:51:39.442Z,6.20
2023-04-10T07:52:41.188Z,5.67
2023-04-10T07:53:42.969Z,6.30
2023-04-10T07:54:44.676Z,6.47
2023-04-10T07:55:49.395Z,5.35
2023-04-10T07:56:53.276Z,5.43
2023-04-10T07:57:55.537Z,5.85
2023-04-10T07:59:00.406Z,5.95
2023-04-10T08:00:02.738Z,5.45
2023-04-10T08:01:04.570Z,5.30
2023-04-10T08:02:06.990Z,5.50
2023-04-10T08:03:09.116Z,5.17
2023-04-10T08:04:11.463Z,5.10
2023-04-10T08:05:13.369Z,4.60
2023-04-10T08:06:15.431Z,4.75
2023-04-10T08:07:18.985Z,4.73
2023-04-10T08:08:20.656Z,5.30
2023-04-10T08:09:22.360Z,5.47
2023-04-10T08:10:24.077Z,4.75
2023-04-10T08:11:30.709Z,4.82
2023-04-10T08:12:34.582Z,4.55
2023-04-10T08:13:36.329Z,4.93
2023-04-10T08:14:38.028Z,4.60
2023-04-10T08:15:39.805Z,4.47
2023-04-10T08:16:41.594Z,4.75
2023-04-10T08:17:43.573Z,4.30
2023-04-10T08:18:45.767Z,4.07
2023-04-10T08:19:47.438Z,4.68
2023-04-10T08:20:49.144Z,5.05
2023-04-10T08:21:50.914Z,4.38
2023-04-10T08:22:53.725Z,4.35
2023-04-10T08:24:01.829Z,4.47
2023-04-10T08:25:04.514Z,4.60
2023-04-10T08:26:06.625Z,4.82
2023-04-10T08:27:08.403Z,4.70
2023-04-10T08:28:10.137Z,4.40
2023-04-10T08:29:12.040Z,4.95
2023-04-10T08:30:14.326Z,3.85
2023-04-10T08:31:16.533Z,4.82
2023-04-10T08:32:18.269Z,4.10
2023-04-10T08:33:20.031Z,4.25
2023-04-10T08:34:24.292Z,4.07
2023-04-10T08:35:26.004Z,4.03
2023-04-10T08:36:28.231Z,4.38
2023-04-10T08:37:29.999Z,4.18
2023-04-10T08:38:31.933Z,3.58
2023-04-10T08:39:36.846Z,3.72
2023-04-10T08:40:38.686Z,3.80
2023-04-10T08:41:41.487Z,3.80
2023-04-10T08:42:43.219Z,3.80
2023-04-10T08:43:46.263Z,3.78
2023-04-10T08:44:50.364Z,3.65
2023-04-10T08:45:52.926Z,3.58
2023-04-10T08:46:59.407Z,3.72
2023-04-10T08:48:05.796Z,3.85
2023-04-10T08:49:10.814Z,3.08
2023-04-10T08:50:16.125Z,3.40
2023-04-10T08:51:25.813Z,3.40
2023-04-10T08:52:34.230Z,3.65
2023-04-10T08:53:41.393Z,3.40
2023-04-10T08:54:48.496Z,3.65
2023-04-10T08:55:50.302Z,3.17
2023-04-10T08:56:54.467Z,2.75
2023-04-10T08:58:01.040Z,3.20
2023-04-10T08:59:03.773Z,2.92
2023-04-10T09:00:19.944Z,3.30
2023-04-10T09:01:25.209Z,2.65
2023-04-10T09:02:27.131Z,3.03
2023-04-10T09:03:29.347Z,2.90
2023-04-10T09:04:31.952Z,3.22
2023-04-10T09:05:35.724Z,3.03
2023-04-10T09:06:37.503Z,3.15
2023-04-10T09:07:39.691Z,2.90
2023-04-10T09:08:41.355Z,2.92
2023-04-10T09:09:43.945Z,3.20
2023-04-10T09:10:45.987Z,3.17
2023-04-10T09:11:55.314Z,3.35
2023-04-10T09:12:57.061Z,3.08
2023-04-10T09:13:58.785Z,3.33
2023-04-10T09:15:00.673Z,3.05
2023-04-10T09:16:03.648Z,3.00
2023-04-10T09:17:16.256Z,3.20
2023-04-10T09:18:18.012Z,3.00
2023-04-10T09:19:33.884Z,2.72
2023-04-10T09:20:36.516Z,3.20
2023-04-10T09:21:38.182Z,3.10
2023-04-10T09:22:39.925Z,3.33
2023-04-10T09:23:44.378Z,3.10
2023-04-10T09:24:48.119Z,3.38
2023-04-10T09:25:51.170Z,3.17
2023-04-10T09:26:53.474Z,2.85
2023-04-10T09:28:10.037Z,3.40
2023-04-10T09:29:12.409Z,2.72
2023-04-10T09:30:36.822Z,2.35
2023-04-10T09:31:40.162Z,2.80
2023-04-10T09:32:43.922Z,3.15
2023-04-10T09:33:46.394Z,2.50
2023-04-10T09:34:57.261Z,2.72
2023-04-10T09:36:04.196Z,2.67
2023-04-10T09:37:06.116Z,2.70
2023-04-10T09:38:17.302Z,2.65
2023-04-10T09:39:19.190Z,2.53
2023-04-10T09:40:25.463Z,2.88
2023-04-10T09:41:27.946Z,2.85
2023-04-10T09:42:40.254Z,2.50
2023-04-10T09:43:43.519Z,2.60
2023-04-10T09:44:45.330Z,2.80
2023-04-10T09:45:56.357Z,2.63
2023-04-10T09:47:18.183Z,2.63
2023-04-10T09:48:20.758Z,3.00
2023-04-10T09:49:22.713Z,4.10
2023-04-10T09:50:38.020Z,2.83
2023-04-10T09:51:42.601Z,2.80
2023-04-10T09:52:44.248Z,2.60
2023-04-10T09:53:52.496Z,2.75
2023-04-10T09:54:59.521Z,2.47
2023-04-10T09:56:01.515Z,2.80
2023-04-10T09:57:05.117Z,2.22
2023-04-10T09:58:07.822Z,2.53
2023-04-10T09:59:10.415Z,2.22
2023-04-10T10:00:14.265Z,2.70
2023-04-10T10:01:16.674Z,2.60
2023-04-10T10:02:20.104Z,2.92
2023-04-10T10:03:22.591Z,2.75
2023-04-10T10:04:25.803Z,2.63
2023-04-10T10:05:30.560Z,3.88
2023-04-10T10:06:33.146Z,2.75
2023-04-10T10:07:35.011Z,2.88
2023-04-10T10:08:36.955Z,2.63
2023-04-10T10:09:38.865Z,2.47
2023-04-10T10:10:47.679Z,2.55
2023-04-10T10:11:51.992Z,2.60
2023-04-10T10:12:59.469Z,2.63
2023-04-10T10:14:12.410Z,2.58
2023-04-10T10:15:25.773Z,2.60
2023-04-10T10:16:43.417Z,2.38
2023-04-10T10:18:13.591Z,2.20
2023-04-10T10:19:24.703Z,2.50
2023-04-10T10:20:28.146Z,2.42
2023-04-10T10:21:30.715Z,2.58
2023-04-10T10:22:32.829Z,2.00
2023-04-10T10:23:34.968Z,2.30
2023-04-10T10:24:39.057Z,2.42
2023-04-10T10:25:41.928Z,2.10
2023-04-10T10:26:45.100Z,2.50
2023-04-10T10:27:49.422Z,2.20
2023-04-10T10:28:55.178Z,2.35
2023-04-10T10:30:01.005Z,2.03
2023-04-10T10:31:05.726Z,2.30
2023-04-10T10:32:08.774Z,2.00
2023-04-10T10:33:12.443Z,2.33
2023-04-10T10:34:16.640Z,2.00
2023-04-10T10:35:19.319Z,2.20
2023-04-10T10:36:22.392Z,2.15
2023-04-10T10:37:24.378Z,2.40
2023-04-10T10:38:27.169Z,2.22
2023-04-10T10:39:42.444Z,1.90
2023-04-10T10:41:01.255Z,2.17
2023-04-10T10:42:29.661Z,1.92
2023-04-10T10:43:50.012Z,2.20
2023-04-10T10:45:19.348Z,3.80
2023-04-10T10:46:32.294Z,2.20
2023-04-10T10:47:38.660Z,2.20
2023-04-10T10:48:40.442Z,2.10
2023-04-10T10:49:59.090Z,2.28
2023-04-10T10:51:03.566Z,2.20
2023-04-10T10:52:05.445Z,2.50
2023-04-10T10:53:07.288Z,2.05
2023-04-10T10:54:27.563Z,2.22
2023-04-10T10:55:39.810Z,2.10
2023-04-10T10:56:41.524Z,2.50
2023-04-10T10:57:47.119Z,2.20
2023-04-10T10:58:50.644Z,2.30
2023-04-10T10:59:52.316Z,2.03
2023-04-10T11:00:54.974Z,1.58
2023-04-10T11:02:19.353Z,1.85
2023-04-10T11:03:22.598Z,1.60
2023-04-10T11:04:47.328Z,1.65
2023-04-10T11:06:09.868Z,1.88
2023-04-10T11:07:11.787Z,1.75
2023-04-10T11:08:13.539Z,2.10
2023-04-10T11:09:53.517Z,1.60
2023-04-10T11:11:08.990Z,1.77
2023-04-10T11:12:10.762Z,1.90
2023-04-10T11:13:17.851Z,1.83
2023-04-10T11:14:20.075Z,2.13
2023-04-10T11:15:25.841Z,2.55
2023-04-10T11:16:31.429Z,2.45
2023-04-10T11:17:54.407Z,2.22
2023-04-10T11:19:18.476Z,2.17
2023-04-10T11:20:25.761Z,1.80
2023-04-10T11:21:28.643Z,1.73
2023-04-10T11:22:30.403Z,1.48
2023-04-10T11:23:32.172Z,1.50
2023-04-10T11:25:10.315Z,1.70
2023-04-10T11:26:12.035Z,1.20
2023-04-10T11:27:40.538Z,1.23
2023-04-10T11:28:42.455Z,1.50
2023-04-10T11:29:44.207Z,1.25
2023-04-10T11:30:46.251Z,1.33
2023-04-10T11:32:05.854Z,1.60
2023-04-10T11:33:07.804Z,1.27
2023-04-10T11:34:12.982Z,1.50
2023-04-10T11:35:19.753Z,1.20
2023-04-10T11:36:21.542Z,1.45
2023-04-10T11:37:24.078Z,1.50
2023-04-10T11:38:25.866Z,1.60
2023-04-10T11:39:27.801Z,1.42
2023-04-10T11:40:30.205Z,1.48
2023-04-10T11:41:34.181Z,1.75
2023-04-10T11:42:35.926Z,1.67
2023-04-10T11:43:37.707Z,1.50
2023-04-10T11:44:39.665Z,1.30
2023-04-10T11:45:42.150Z,1.20
2023-04-10T11:46:47.764Z,1.40
2023-04-10T11:47:55.758Z,1.45
2023-04-10T11:49:03.142Z,1.10
2023-04-10T11:50:05.206Z,1.20
2023-04-10T11:51:11.299Z,1.38
2023-04-10T11:52:13.112Z,1.00
2023-04-10T11:53:24.370Z,1.20
2023-04-10T11:54:27.516Z,1.27
2023-04-10T11:55:39.042Z,1.05
2023-04-10T11:56:43.113Z,0.90
2023-04-10T11:57:46.023Z,1.15
2023-04-10T11:58:54.418Z,0.95
2023-04-10T11:59:56.792Z,1.20
2023-04-10T12:01:01.198Z,1.10
2023-04-10T12:02:17.729Z,1.30
2023-04-10T12:03:36.679Z,1.10
2023-04-10T12:04:38.830Z,1.05
2023-04-10T12:05:47.674Z,1.05
2023-04-10T12:06:52.024Z,1.00
2023-04-10T12:07:55.562Z,0.90
2023-04-10T12:08:57.623Z,0.93
2023-04-10T12:09:59.694Z,0.70
2023-04-10T12:11:01.668Z,0.90
2023-04-10T12:12:05.552Z,0.80
2023-04-10T12:13:07.688Z,0.90
2023-04-10T12:14:09.529Z,0.80
2023-04-10T12:15:28.494Z,0.90
2023-04-10T12:16:32.292Z,0.60
2023-04-10T12:17:34.358Z,0.63
2023-04-10T12:18:36.808Z,0.80
2023-04-10T12:19:39.715Z,0.63
2023-04-10T12:20:41.759Z,1.00
2023-04-10T12:21:44.897Z,1.05
2023-04-10T12:22:46.927Z,1.00
2023-04-10T12:23:48.634Z,1.13
2023-04-10T12:24:51.915Z,0.93
2023-04-10T12:26:06.510Z,0.95
2023-04-10T12:27:25.547Z,0.90
2023-04-10T12:28:27.270Z,0.85
2023-04-10T12:29:29.706Z,1.10
2023-04-10T12:30:31.645Z,1.05
2023-04-10T12:31:35.631Z,1.00
2023-04-10T12:32:37.565Z,1.00
2023-04-10T12:33:39.652Z,1.20
2023-04-10T12:34:41.504Z,1.40
2023-04-10T12:35:43.245Z,1.10
2023-04-10T12:36:52.385Z,1.20
2023-04-10T12:37:54.894Z,0.95
2023-04-10T12:38:57.862Z,1.20
2023-04-10T12:40:07.368Z,1.00
2023-04-10T12:41:12.353Z,1.10
2023-04-10T12:42:22.799Z,1.10
2023-04-10T12:43:38.913Z,1.05
2023-04-10T12:44:58.934Z,1.05
2023-04-10T12:46:01.331Z,1.00
2023-04-10T12:47:03.134Z,1.00
2023-04-10T12:48:05.018Z,1.17
2023-04-10T12:49:16.016Z,1.30
2023-04-10T12:50:20.650Z,1.10
2023-04-10T12:51:41.726Z,1.23
2023-04-10T12:52:46.050Z,1.00
2023-04-10T12:53:47.859Z,1.17
2023-04-10T12:54:49.557Z,0.95
2023-04-10T12:55:59.432Z,1.20
2023-04-10T12:57:02.328Z,1.55
2023-04-10T12:58:18.078Z,1.20
2023-04-10T12:59:19.857Z,1.10
2023-04-10T13:00:21.573Z,1.40
2023-04-10T13:01:23.389Z,0.90
2023-04-10T13:02:25.736Z,1.25
2023-04-10T13:03:27.756Z,1.20
2023-04-10T13:04:32.225Z,1.50
2023-04-10T13:05:34.110Z,1.50
2023-04-10T13:06:43.663Z,1.83
2023-04-10T13:07:45.604Z,1.35
2023-04-10T13:08:47.357Z,1.10
2023-04-10T13:09:49.095Z,1.25
2023-04-10T13:10:51.126Z,1.20
2023-04-10T13:11:52.839Z,1.20
2023-04-10T13:12:54.619Z,1.00
2023-04-10T13:13:56.545Z,1.20
2023-04-10T13:14:59.840Z,1.10
2023-04-10T13:16:01.649Z,1.20
2023-04-10T13:17:03.452Z,1.70
2023-04-10T13:18:08.248Z,1.60
2023-04-10T13:19:10.363Z,1.50
2023-04-10T13:20:13.392Z,1.30
2023-04-10T13:21:18.777Z,1.40
2023-04-10T13:22:20.815Z,1.40
2023-04-10T13:23:22.585Z,1.30
2023-04-10T13:24:24.317Z,1.50
2023-04-10T13:25:27.659Z,1.50
2023-04-10T13:26:29.448Z,1.27
2023-04-10T13:27:31.680Z,1.10
2023-04-10T13:28:33.389Z,1.30
2023-04-10T13:29:35.854Z,1.33
2023-04-10T13:30:40.639Z,1.20
2023-04-10T13:31:42.426Z,1.25
2023-04-10T13:32:44.199Z,1.25
2023-04-10T13:33:48.088Z,1.05
2023-04-10T13:34:50.231Z,1.13
2023-04-10T13:35:51.998Z,1.02
2023-04-10T13:36:53.743Z,1.20
2023-04-10T13:37:55.786Z,1.15
2023-04-10T13:38:57.500Z,1.20
2023-04-10T13:39:59.270Z,1.30
2023-04-10T13:41:01.041Z,1.10
2023-04-10T13:42:02.780Z,1.38
2023-04-10T13:43:06.264Z,2.47
2023-04-10T13:44:08.018Z,2.78
2023-04-10T13:45:10.131Z,2.00
2023-04-10T13:46:11.872Z,1.80
2023-04-10T13:47:14.801Z,1.50
2023-04-10T13:48:20.334Z,1.63
2023-04-10T13:49:24.090Z,1.42
2023-04-10T13:50:25.883Z,1.38
2023-04-10T13:51:27.924Z,1.48
2023-04-10T13:52:29.756Z,1.42
2023-04-10T13:53:31.447Z,1.58
2023-04-10T13:54:33.157Z,1.30
2023-04-10T13:55:36.465Z,1.40
2023-04-10T13:56:38.323Z,1.17
2023-04-10T13:57:40.133Z,1.20
2023-04-10T13:58:41.859Z,1.20
2023-04-10T13:59:43.680Z,1.60
2023-04-10T14:00:45.641Z,1.23
2023-04-10T14:01:47.756Z,1.20
2023-04-10T14:02:49.675Z,1.30
2023-04-10T14:03:51.639Z,1.35
2023-04-10T14:04:53.412Z,1.50
2023-04-10T14:05:55.299Z,1.60
2023-04-10T14:07:00.455Z,1.20
2023-04-10T14:08:02.286Z,1.42
2023-04-10T14:09:04.309Z,1.35
2023-04-10T14:10:07.248Z,1.42